createdAt,value
2023-05-19T00:02:24.113Z,6.56
2023-05-19T00:04:50.993Z,6.75
2023-05-19T00:07:18.321Z,6.63
2023-05-19T00:09:45.049Z,6.89
2023-05-19T00:12:12.500Z,6.17
2023-05-19T00:14:39.375Z,6.01
2023-05-19T00:19:50.574Z,6.52
2023-05-19T00:22:17.254Z,5.99
2023-05-19T00:24:44.039Z,6.27
2023-05-19T00:27:10.737Z,6.46
2023-05-19T00:29:37.423Z,6.32
2023-05-19T00:32:04.270Z,7.04
2023-05-19T00:34:30.980Z,6.24
2023-05-19T00:36:57.647Z,6.28
2023-05-19T00:39:24.329Z,6.33
2023-05-19T00:41:50.972Z,6.13
2023-05-19T00:44:17.597Z,6.02
2023-05-19T00:46:44.287Z,6.05
2023-05-19T00:49:10.973Z,5.87
2023-05-19T00:51:37.599Z,6.15
2023-05-19T00:54:04.495Z,6.58
2023-05-19T00:56:31.319Z,5.97
2023-05-19T00:58:57.993Z,6.35
2023-05-19T01:01:24.723Z,6.22
2023-05-19T01:03:51.551Z,6.21
2023-05-19T01:06:18.284Z,6.08
2023-05-19T01:08:44.913Z,5.92
2023-05-19T01:11:11.586Z,6.08
2023-05-19T01:13:40.340Z,6.22
2023-05-19T01:16:11.180Z,6.61
2023-05-19T01:18:37.750Z,6.35
2023-05-19T01:21:31.645Z,6.23
2023-05-19T01:24:07.374Z,6.58
2023-05-19T01:26:58.846Z,6.68
2023-05-19T01:29:48.058Z,6.33
2023-05-19T01:32:14.802Z,6.60
2023-05-19T01:34:43.179Z,6.85
2023-05-19T01:37:09.902Z,6.59
2023-05-19T01:39:36.568Z,6.47
2023-05-19T01:42:03.283Z,6.25
2023-05-19T01:44:29.913Z,6.51
2023-05-19T01:46:56.603Z,6.64
2023-05-19T01:49:23.299Z,6.23
2023-05-19T01:51:50.040Z,5.93
2023-05-19T01:54:16.723Z,5.92
2023-05-19T01:57:00.746Z,5.89
2023-05-19T01:59:48.601Z,6.40
2023-05-19T02:02:44.017Z,6.45
2023-05-19T02:05:15.151Z,6.47
2023-05-19T02:07:50.423Z,6.67
2023-05-19T02:10:23.756Z,6.65
2023-05-19T02:12:50.681Z,6.52
2023-05-19T02:15:17.982Z,6.61
2023-05-19T02:17:45.336Z,6.11
2023-05-19T02:20:12.103Z,6.47
2023-05-19T02:22:38.902Z,6.28
2023-05-19T02:25:05.792Z,6.09
2023-05-19T02:27:32.593Z,5.96
2023-05-19T02:29:59.274Z,6.13
2023-05-19T02:32:26.095Z,6.15
2023-05-19T02:34:52.800Z,6.03
2023-05-19T02:37:19.431Z,5.98
2023-05-19T02:39:46.049Z,6.04
2023-05-19T02:42:12.724Z,6.20
2023-05-19T02:44:39.368Z,6.13
2023-05-19T02:47:05.989Z,5.85
2023-05-19T02:49:32.628Z,6.10
2023-05-19T02:51:59.256Z,6.20
2023-05-19T02:54:25.926Z,5.86
2023-05-19T02:56:52.569Z,5.99
2023-05-19T02:59:19.198Z,6.27
2023-05-19T03:01:45.893Z,6.00
2023-05-19T03:04:12.602Z,5.64
2023-05-19T03:06:39.473Z,5.88
2023-05-19T03:09:06.161Z,5.70
2023-05-19T03:11:32.849Z,6.00
2023-05-19T03:13:59.537Z,5.96
2023-05-19T03:16:26.257Z,5.78
2023-05-19T03:18:52.967Z,5.34
2023-05-19T03:21:19.636Z,5.49
2023-05-19T03:23:46.332Z,5.62
2023-05-19T03:26:12.977Z,5.57
2023-05-19T03:28:39.626Z,5.29
2023-05-19T03:31:06.369Z,5.46
2023-05-19T03:33:33.110Z,5.46
2023-05-19T03:35:59.851Z,5.64
2023-05-19T03:38:26.533Z,5.52
2023-05-19T03:40:53.165Z,5.72
2023-05-19T03:43:19.804Z,5.80
2023-05-19T03:45:46.494Z,5.66
2023-05-19T03:48:13.206Z,5.84
2023-05-19T03:50:39.916Z,6.02
2023-05-19T03:53:06.598Z,6.02
2023-05-19T03:55:33.237Z,5.58
2023-05-19T03:57:59.858Z,5.75
2023-05-19T04:00:26.662Z,6.02
2023-05-19T04:02:53.439Z,5.88
2023-05-19T04:05:20.180Z,5.58
2023-05-19T04:07:46.905Z,5.91
2023-05-19T04:10:13.633Z,5.91
2023-05-19T04:12:40.275Z,5.99
2023-05-19T04:15:07.471Z,6.07
2023-05-19T04:17:34.186Z,6.20
2023-05-19T04:20:00.838Z,6.22
2023-05-19T04:22:27.501Z,6.38
2023-05-19T04:24:54.167Z,6.31
2023-05-19T04:27:20.793Z,6.23
2023-05-19T04:29:47.459Z,6.45
2023-05-19T04:32:14.219Z,6.04
2023-05-19T04:34:40.907Z,6.05
2023-05-19T04:37:07.699Z,5.96
2023-05-19T04:39:34.414Z,6.21
2023-05-19T04:42:01.154Z,5.94
2023-05-19T04:44:27.849Z,5.66
2023-05-19T04:46:54.686Z,5.74
2023-05-19T04:49:21.479Z,5.82
2023-05-19T04:51:48.161Z,5.52
2023-05-19T04:54:14.792Z,5.69
2023-05-19T04:56:41.432Z,5.61
2023-05-19T04:59:08.110Z,5.89
2023-05-19T05:01:34.809Z,5.91
2023-05-19T05:04:01.479Z,6.38
2023-05-19T05:06:28.179Z,5.93
2023-05-19T05:08:54.807Z,5.35
2023-05-19T05:11:21.658Z,5.93
2023-05-19T05:13:48.622Z,5.90
2023-05-19T05:16:15.755Z,5.99
2023-05-19T05:18:44.900Z,5.85
2023-05-19T05:21:12.196Z,5.86
2023-05-19T05:23:39.119Z,5.82
2023-05-19T05:26:10.657Z,5.98
2023-05-19T05:28:37.344Z,5.44
2023-05-19T05:31:04.031Z,5.81
2023-05-19T05:33:30.734Z,5.46
2023-05-19T05:35:57.483Z,5.56
2023-05-19T05:38:24.287Z,5.50
2023-05-19T05:40:51.036Z,5.74
2023-05-19T05:43:17.681Z,5.42
2023-05-19T05:45:44.412Z,5.60
2023-05-19T05:48:11.332Z,5.48
2023-05-19T05:50:38.398Z,5.48
2023-05-19T05:53:05.552Z,5.54
2023-05-19T05:55:32.552Z,5.83
2023-05-19T05:57:59.410Z,5.58
2023-05-19T06:00:26.054Z,5.90
2023-05-19T06:02:52.880Z,5.66
2023-05-19T06:05:19.671Z,5.47
2023-05-19T06:07:46.381Z,5.53
2023-05-19T06:10:13.082Z,6.17
2023-05-19T06:12:39.733Z,5.77
2023-05-19T06:15:07.220Z,5.80
2023-05-19T06:17:34.163Z,5.91
2023-05-19T06:20:00.809Z,9.82
2023-05-19T06:22:27.429Z,7.97
2023-05-19T06:24:54.284Z,6.21
2023-05-19T06:27:20.970Z,6.14
2023-05-19T06:29:47.648Z,6.11
2023-05-19T06:32:15.045Z,5.99
2023-05-19T06:34:41.737Z,6.18
2023-05-19T06:37:08.408Z,6.22
2023-05-19T06:39:35.116Z,6.06
2023-05-19T06:42:01.767Z,5.63
2023-05-19T06:44:28.422Z,5.96
2023-05-19T06:46:55.148Z,6.46
2023-05-19T06:49:21.873Z,6.19
2023-05-19T06:51:48.705Z,6.15
2023-05-19T06:54:15.342Z,6.29
2023-05-19T06:56:42.037Z,6.45
2023-05-19T06:59:08.684Z,5.88
2023-05-19T07:01:35.330Z,6.25
2023-05-19T07:04:02.200Z,6.53
2023-05-19T07:06:29.442Z,6.03
2023-05-19T07:08:56.089Z,6.10
2023-05-19T07:11:23.438Z,5.97
2023-05-19T07:13:50.127Z,6.42
2023-05-19T07:16:16.896Z,6.41
2023-05-19T07:18:43.834Z,7.42
2023-05-19T07:21:10.518Z,7.67
2023-05-19T07:23:39.250Z,7.07
2023-05-19T07:26:05.952Z,6.85
2023-05-19T07:28:32.593Z,6.91
2023-05-19T07:30:59.276Z,7.09
2023-05-19T07:33:26.009Z,7.18
2023-05-19T07:35:53.264Z,6.75
2023-05-19T07:38:19.941Z,6.73
2023-05-19T07:40:46.561Z,6.89
2023-05-19T07:43:13.234Z,6.69
2023-05-19T07:45:39.884Z,6.90
2023-05-19T07:48:06.610Z,6.62
2023-05-19T07:50:33.369Z,6.85
2023-05-19T07:53:00.140Z,6.53
2023-05-19T07:55:26.825Z,6.85
2023-05-19T07:57:53.585Z,6.82
2023-05-19T08:00:20.349Z,6.52
2023-05-19T08:02:47.075Z,6.74
2023-05-19T08:05:13.810Z,6.90
2023-05-19T08:07:40.512Z,7.00
2023-05-19T08:10:07.597Z,7.47
2023-05-19T08:12:34.283Z,7.16
2023-05-19T08:15:01.839Z,7.14
2023-05-19T08:17:28.770Z,6.54
2023-05-19T08:19:55.471Z,7.24
2023-05-19T08:22:22.129Z,7.28
2023-05-19T08:24:48.798Z,6.99
2023-05-19T08:27:15.967Z,6.92
2023-05-19T08:29:43.016Z,6.84
2023-05-19T08:32:11.619Z,6.91
2023-05-19T08:34:39.901Z,7.19
2023-05-19T08:37:06.880Z,7.22
2023-05-19T08:39:33.559Z,6.85
2023-05-19T08:42:00.504Z,7.56
2023-05-19T08:44:27.189Z,7.10
2023-05-19T08:46:54.790Z,6.91
2023-05-19T08:49:27.758Z,7.26
2023-05-19T08:52:29.442Z,7.70
2023-05-19T08:54:59.453Z,7.40
2023-05-19T08:57:26.586Z,7.43
2023-05-19T08:59:53.354Z,7.59
2023-05-19T09:02:20.126Z,7.53
2023-05-19T09:04:46.890Z,7.46
2023-05-19T09:07:16.554Z,7.33
2023-05-19T09:09:43.277Z,7.27
2023-05-19T09:12:10.758Z,7.53
2023-05-19T09:14:38.084Z,7.79
2023-05-19T09:17:04.984Z,7.74
2023-05-19T09:19:31.855Z,7.76
2023-05-19T09:21:59.192Z,7.89
2023-05-19T09:24:26.034Z,7.84
2023-05-19T09:26:54.819Z,7.89
2023-05-19T09:29:21.753Z,7.89
2023-05-19T09:31:48.983Z,7.70
2023-05-19T09:34:15.700Z,8.74
2023-05-19T09:36:42.507Z,7.81
2023-05-19T09:39:16.116Z,7.92
2023-05-19T09:41:42.799Z,7.96
2023-05-19T09:44:25.726Z,7.67
2023-05-19T09:46:53.327Z,8.32
2023-05-19T09:49:20.726Z,7.47
2023-05-19T09:51:58.803Z,8.08
2023-05-19T09:54:25.989Z,7.20
2023-05-19T09:57:03.323Z,7.62
2023-05-19T09:59:33.004Z,7.24
2023-05-19T10:02:00.822Z,6.63
2023-05-19T10:04:28.276Z,7.40
2023-05-19T10:06:55.717Z,7.61
2023-05-19T10:09:26.115Z,7.45
2023-05-19T10:11:53.086Z,7.47
2023-05-19T10:14:23.646Z,6.97
2023-05-19T10:16:54.955Z,6.97
2023-05-19T10:19:22.775Z,7.20
2023-05-19T10:21:49.641Z,6.93
2023-05-19T10:24:16.306Z,7.92
2023-05-19T10:26:56.937Z,6.75
2023-05-19T10:29:27.319Z,6.53
2023-05-19T10:31:54.291Z,6.74
2023-05-19T10:34:54.438Z,6.36
2023-05-19T10:37:36.256Z,6.45
2023-05-19T10:40:07.013Z,6.93
2023-05-19T10:42:40.946Z,7.29
2023-05-19T10:45:16.905Z,7.40
2023-05-19T10:47:44.037Z,7.19
2023-05-19T10:50:10.819Z,7.53
2023-05-19T10:52:38.065Z,7.72
2023-05-19T10:55:07.463Z,8.62
2023-05-19T10:57:34.212Z,8.03
2023-05-19T11:00:03.958Z,7.71
2023-05-19T11:02:50.761Z,7.07
2023-05-19T11:05:17.526Z,7.29
2023-05-19T11:07:44.741Z,7.55
2023-05-19T11:10:11.696Z,7.72
2023-05-19T11:12:45.433Z,7.77
2023-05-19T11:15:13.389Z,7.63
2023-05-19T11:17:40.560Z,7.74
2023-05-19T11:20:08.586Z,7.66
2023-05-19T11:22:35.229Z,7.79
2023-05-19T11:25:01.871Z,7.75
2023-05-19T11:27:35.353Z,7.07
2023-05-19T11:30:08.982Z,7.39
2023-05-19T11:32:36.034Z,7.40
2023-05-19T11:35:02.810Z,7.16
2023-05-19T11:37:32.005Z,7.12
2023-05-19T11:40:00.201Z,7.33
2023-05-19T11:42:26.860Z,7.52
2023-05-19T11:44:55.345Z,7.68
2023-05-19T11:47:21.983Z,7.94
2023-05-19T11:49:48.614Z,7.90
2023-05-19T11:52:15.296Z,7.70
2023-05-19T11:54:41.941Z,7.13
2023-05-19T11:57:09.288Z,7.04
2023-05-19T11:59:36.923Z,7.00
2023-05-19T12:02:12.667Z,7.36
2023-05-19T12:04:39.547Z,6.74
2023-05-19T12:07:06.329Z,6.91
2023-05-19T12:09:32.972Z,6.89
2023-05-19T12:11:59.806Z,6.94
2023-05-19T12:14:26.717Z,7.09
2023-05-19T12:16:53.396Z,6.70
2023-05-19T12:19:23.227Z,7.15
2023-05-19T12:21:50.099Z,7.06
2023-05-19T12:24:16.793Z,7.27
2023-05-19T12:26:43.451Z,7.17
2023-05-19T12:29:10.149Z,6.60
2023-05-19T12:31:36.977Z,6.59
2023-05-19T12:34:03.707Z,6.31
2023-05-19T12:36:32.132Z,7.01
2023-05-19T12:38:58.828Z,6.44
2023-05-19T12:41:25.634Z,6.36
2023-05-19T12:43:52.460Z,6.46
2023-05-19T12:46:19.206Z,5.42
2023-05-19T12:48:46.489Z,4.14
2023-05-19T12:51:17.367Z,3.97
2023-05-19T12:53:44.585Z,3.89
2023-05-19T12:56:15.242Z,3.65
2023-05-19T12:58:42.217Z,3.41
2023-05-19T13:01:15.855Z,3.66
2023-05-19T13:03:42.809Z,3.43
2023-05-19T13:06:09.695Z,3.54
2023-05-19T13:08:37.020Z,3.37
2023-05-19T13:11:03.760Z,3.38
2023-05-19T13:13:30.397Z,3.57
2023-05-19T13:15:57.059Z,3.44
2023-05-19T13:18:23.784Z,3.47
2023-05-19T13:20:50.531Z,3.22
2023-05-19T13:23:17.287Z,3.37
2023-05-19T13:25:44.010Z,3.89
2023-05-19T13:28:10.779Z,3.68
2023-05-19T13:30:38.762Z,3.67
2023-05-19T13:33:05.669Z,3.60
2023-05-19T13:35:32.382Z,3.65
2023-05-19T13:37:59.152Z,4.07
2023-05-19T13:40:25.835Z,3.46
2023-05-19T13:42:52.538Z,3.94
2023-05-19T13:45:19.196Z,3.70
2023-05-19T13:47:45.922Z,3.80
2023-05-19T13:50:12.823Z,2.96
2023-05-19T13:52:39.633Z,2.96
2023-05-19T13:55:06.927Z,2.83
2023-05-19T13:57:33.579Z,3.16
2023-05-19T14:00:02.436Z,3.37
2023-05-19T14:02:29.822Z,2.88
2023-05-19T14:04:57.070Z,3.24
2023-05-19T14:07:23.781Z,3.40
2023-05-19T14:09:50.443Z,3.40
2023-05-19T14:12:17.258Z,3.32
2023-05-19T14:14:43.967Z,3.35
2023-05-19T14:17:10.662Z,3.64
2023-05-19T14:19:37.416Z,3.23
2023-05-19T14:22:04.342Z,3.34
2023-05-19T14:24:31.044Z,3.48
2023-05-19T14:26:57.721Z,3.02
2023-05-19T14:29:24.413Z,3.05
2023-05-19T14:31:51.205Z,3.30
2023-05-19T14:34:17.906Z,3.22
2023-05-19T14:36:44.575Z,3.16
2023-05-19T14:39:11.265Z,3.31
2023-05-19T14:41:37.966Z,3.08
2023-05-19T14:44:04.947Z,3.33
2023-05-19T14:46:31.628Z,3.21
2023-05-19T14:48:58.343Z,3.29
2023-05-19T14:51:24.988Z,3.18
2023-05-19T14:53:51.657Z,3.25
2023-05-19T14:56:18.431Z,3.23
2023-05-19T14:58:45.131Z,3.27
2023-05-19T15:01:11.893Z,3.37
2023-05-19T15:03:38.686Z,3.49
2023-05-19T15:06:09.158Z,3.45
2023-05-19T15:08:35.851Z,3.49
2023-05-19T15:11:02.519Z,3.27
2023-05-19T15:13:29.246Z,3.47
2023-05-19T15:16:08.281Z,3.35
2023-05-19T15:18:42.083Z,3.48
2023-05-19T15:21:08.805Z,3.85
2023-05-19T15:23:35.502Z,3.47
2023-05-19T15:26:02.143Z,3.46
2023-05-19T15:28:28.843Z,3.75
2023-05-19T15:30:55.579Z,3.77
2023-05-19T15:33:22.366Z,3.85
2023-05-19T15:35:49.053Z,3.85
2023-05-19T15:38:15.742Z,4.12
2023-05-19T15:40:42.449Z,4.28
2023-05-19T15:43:10.272Z,4.49
2023-05-19T15:45:36.983Z,4.33
2023-05-19T15:48:03.810Z,4.64
2023-05-19T15:50:30.559Z,4.73
2023-05-19T15:52:57.277Z,4.54
2023-05-19T15:55:23.982Z,4.81
2023-05-19T15:57:50.662Z,4.83
2023-05-19T16:00:17.304Z,4.86
2023-05-19T16:02:44.044Z,4.88
2023-05-19T16:05:10.746Z,5.01
2023-05-19T16:07:37.500Z,5.14
2023-05-19T16:10:04.564Z,4.75
2023-05-19T16:12:31.210Z,4.82
2023-05-19T16:14:57.883Z,5.16
2023-05-19T16:17:24.563Z,5.22
2023-05-19T16:19:51.245Z,5.03
2023-05-19T16:22:19.025Z,4.77
2023-05-19T16:24:45.670Z,5.10
2023-05-19T16:27:12.295Z,5.34
2023-05-19T16:29:38.987Z,5.55
2023-05-19T16:32:05.821Z,5.02
2023-05-19T16:34:32.604Z,5.48
2023-05-19T16:36:59.304Z,4.93
2023-05-19T16:39:26.014Z,5.19
2023-05-19T16:41:52.734Z,5.57
2023-05-19T16:44:19.400Z,5.26
2023-05-19T16:46:46.124Z,5.02
2023-05-19T16:49:12.748Z,5.24
2023-05-19T16:51:39.461Z,4.87
2023-05-19T16:54:06.137Z,5.52
2023-05-19T16:56:32.779Z,5.13
2023-05-19T16:58:59.423Z,5.05
2023-05-19T17:01:26.198Z,4.87
2023-05-19T17:03:53.048Z,5.08
2023-05-19T17:06:19.883Z,5.49
2023-05-19T17:08:46.633Z,5.15
2023-05-19T17:11:13.352Z,5.36
2023-05-19T17:13:40.047Z,5.24
2023-05-19T17:16:06.740Z,5.77
2023-05-19T17:18:33.428Z,5.58
2023-05-19T17:21:02.240Z,5.44
2023-05-19T17:23:29.281Z,5.38
2023-05-19T17:25:55.930Z,5.40
2023-05-19T17:28:22.633Z,4.98
2023-05-19T17:30:49.401Z,5.26
2023-05-19T17:33:16.173Z,5.09
2023-05-19T17:35:42.934Z,5.08
2023-05-19T17:38:09.615Z,5.41
2023-05-19T17:40:36.471Z,5.33
2023-05-19T17:43:03.331Z,5.52
2023-05-19T17:45:29.982Z,5.39
2023-05-19T17:47:57.438Z,5.26
2023-05-19T17:50:25.204Z,5.37
2023-05-19T17:52:52.183Z,5.44
2023-05-19T17:55:19.524Z,5.39
2023-05-19T17:57:46.447Z,5.45
2023-05-19T18:00:13.529Z,5.16
2023-05-19T18:02:40.707Z,5.27
2023-05-19T18:05:07.965Z,5.37
2023-05-19T18:07:34.682Z,5.88
2023-05-19T18:10:01.338Z,5.69
2023-05-19T18:12:28.007Z,5.97
2023-05-19T18:14:55.009Z,5.76
2023-05-19T18:17:21.748Z,5.30
2023-05-19T18:19:48.389Z,5.78
2023-05-19T18:22:15.101Z,5.54
2023-05-19T18:24:41.807Z,5.79
2023-05-19T18:27:08.478Z,6.24
2023-05-19T18:29:35.209Z,5.97
2023-05-19T18:32:01.959Z,6.32
2023-05-19T18:34:29.318Z,5.71
2023-05-19T18:36:56.041Z,6.60
2023-05-19T18:39:22.785Z,6.69
2023-05-19T18:41:49.408Z,6.32
2023-05-19T18:44:16.107Z,6.83
2023-05-19T18:46:42.759Z,6.15
2023-05-19T18:49:11.605Z,6.34
2023-05-19T18:51:38.529Z,6.32
2023-05-19T18:54:05.216Z,7.19
2023-05-19T18:56:32.585Z,6.29
2023-05-19T18:58:59.287Z,7.16
2023-05-19T19:01:25.996Z,7.13
2023-05-19T19:03:52.678Z,6.98
2023-05-19T19:06:19.369Z,6.30
2023-05-19T19:08:46.260Z,6.46
2023-05-19T19:11:12.953Z,6.79
2023-05-19T19:13:39.587Z,6.96
2023-05-19T19:16:06.663Z,6.98
2023-05-19T19:18:33.332Z,6.61
2023-05-19T19:20:59.984Z,7.07
2023-05-19T19:23:26.692Z,6.64
2023-05-19T19:25:55.232Z,7.23
2023-05-19T19:28:22.256Z,6.68
2023-05-19T19:30:49.167Z,6.92
2023-05-19T19:33:15.886Z,7.10
2023-05-19T19:35:45.192Z,6.83
2023-05-19T19:38:11.910Z,6.86
2023-05-19T19:40:39.617Z,8.12
2023-05-19T19:43:06.304Z,7.22
2023-05-19T19:45:32.960Z,7.40
2023-05-19T19:47:59.649Z,7.29
2023-05-19T19:50:26.330Z,7.54
2023-05-19T19:52:53.020Z,8.14
2023-05-19T19:55:19.691Z,7.91
2023-05-19T19:57:46.375Z,7.96
2023-05-19T20:00:13.503Z,8.32
2023-05-19T20:02:51.625Z,8.99
2023-05-19T20:05:22.384Z,8.15
2023-05-19T20:07:49.083Z,8.34
2023-05-19T20:10:15.747Z,8.41
2023-05-19T20:12:42.425Z,8.38
2023-05-19T20:15:09.576Z,8.33
2023-05-19T20:17:36.334Z,8.63
2023-05-19T20:20:03.064Z,8.21
2023-05-19T20:22:29.790Z,8.34
2023-05-19T20:24:56.527Z,8.42
2023-05-19T20:27:23.213Z,7.76
2023-05-19T20:29:49.996Z,8.36
2023-05-19T20:32:16.630Z,8.08
2023-05-19T20:34:43.444Z,8.48
2023-05-19T20:37:10.544Z,8.64
2023-05-19T20:39:37.232Z,8.71
2023-05-19T20:42:03.991Z,8.65
2023-05-19T20:44:30.779Z,8.58
2023-05-19T20:46:57.554Z,8.30
2023-05-19T20:49:24.266Z,8.67
2023-05-19T20:51:50.981Z,8.82
2023-05-19T20:54:17.642Z,8.57
2023-05-19T20:56:44.352Z,8.78
2023-05-19T20:59:11.042Z,8.70
2023-05-19T21:01:38.010Z,8.99
2023-05-19T21:04:04.783Z,9.27
2023-05-19T21:06:31.461Z,8.93
2023-05-19T21:08:58.130Z,9.12
2023-05-19T21:11:24.853Z,9.59
2023-05-19T21:13:51.509Z,9.66
2023-05-19T21:16:18.203Z,9.52
2023-05-19T21:18:44.951Z,9.71
2023-05-19T21:21:11.700Z,9.48
2023-05-19T21:23:38.410Z,10.40
2023-05-19T21:26:05.251Z,10.03
2023-05-19T21:28:31.965Z,10.28
2023-05-19T21:30:58.679Z,9.80
2023-05-19T21:33:25.372Z,9.89
2023-05-19T21:35:52.180Z,9.58
2023-05-19T21:38:23.747Z,10.05
2023-05-19T21:40:51.099Z,9.74
2023-05-19T21:43:17.781Z,9.73
2023-05-19T21:45:44.450Z,10.24
2023-05-19T21:48:11.106Z,10.04
2023-05-19T21:50:38.118Z,10.28
2023-05-19T21:53:05.171Z,10.31
2023-05-19T21:55:31.869Z,10.15
2023-05-19T21:58:00.319Z,9.70
2023-05-19T22:00:29.050Z,10.01
2023-05-19T22:02:55.813Z,10.49
2023-05-19T22:05:22.597Z,10.08
2023-05-19T22:07:49.344Z,10.18
2023-05-19T22:10:16.122Z,10.17
2023-05-19T22:12:42.828Z,10.19
2023-05-19T22:15:10.223Z,10.21
2023-05-19T22:17:37.024Z,10.15
2023-05-19T22:20:04.040Z,10.69
2023-05-19T22:22:30.723Z,10.52
2023-05-19T22:24:57.405Z,11.00
2023-05-19T22:27:24.053Z,10.56
2023-05-19T22:29:50.756Z,10.72
2023-05-19T22:32:17.488Z,10.44
2023-05-19T22:34:44.414Z,10.96
2023-05-19T22:37:11.268Z,11.07
2023-05-19T22:39:38.807Z,10.27
2023-05-19T22:42:05.737Z,10.58
2023-05-19T22:44:32.453Z,10.25
2023-05-19T22:46:59.138Z,10.06
2023-05-19T22:49:25.781Z,9.90
2023-05-19T22:51:52.484Z,9.90
2023-05-19T22:54:19.209Z,10.32
2023-05-19T22:56:46.536Z,10.21
2023-05-19T22:59:13.246Z,10.37
2023-05-19T23:01:40.021Z,10.82
2023-05-19T23:04:06.837Z,10.30
2023-05-19T23:06:33.563Z,10.47
2023-05-19T23:09:03.487Z,10.25
2023-05-19T23:11:30.175Z,10.65
2023-05-19T23:13:56.909Z,10.73
2023-05-19T23:16:23.620Z,10.93
2023-05-19T23:18:50.326Z,10.42
2023-05-19T23:21:17.113Z,10.99
2023-05-19T23:23:43.812Z,10.51
2023-05-19T23:26:10.517Z,10.58
2023-05-19T23:28:37.181Z,10.88
2023-05-19T23:31:03.857Z,10.81
2023-05-19T23:33:30.566Z,10.78
2023-05-19T23:35:57.866Z,11.22
2023-05-19T23:38:24.533Z,11.81
2023-05-19T23:40:51.173Z,11.11
2023-05-19T23:43:17.910Z,11.36
2023-05-19T23:45:44.683Z,11.63
2023-05-19T23:48:11.396Z,10.98
2023-05-19T23:50:38.063Z,11.27
2023-05-19T23:53:04.700Z,11.35
2023-05-19T23:55:31.592Z,10.93
2023-05-19T23:57:58.451Z,10.75
